sensor_id;sensor_type;location;lat;lon;timestamp;temperature;humidity
25154;DHT22;47555;51.038;6.280;2022-11-15T00:00:17;8.90;99.90
25154;DHT22;47555;51.038;6.280;2022-11-15T00:02:43;9.00;99.90
25154;DHT22;47555;51.038;6.280;2022-11-15T00:05:08;9.00;99.90
25154;DHT22;47555;51.038;6.280;2022-11-15T00:07:34;9.00;99.90
25154;DHT22;47555;51.038;6.280;2022-11-15T00:09:59;9.10;99.90
25154;DHT22;47555;51.038;6.280;2022-11-15T00:12:27;9.10;99.90
25154;DHT22;47555;51.038;6.280;2022-11-15T00:14:53;9.10;99.90
25154;DHT22;47555;51.038;6.280;2022-11-15T00:17:18;9.20;99.90
25154;DHT22;47555;51.038;6.280;2022-11-15T00:19:44;9.20;99.90
25154;DHT22;47555;51.038;6.280;2022-11-15T00:22:09;9.20;99.90
25154;DHT22;47555;51.038;6.280;2022-11-15T00:24:34;9.30;99.90
25154;DHT22;47555;51.038;6.280;2022-11-15T00:27:00;9.30;99.90
25154;DHT22;47555;51.038;6.280;2022-11-15T00:29:25;9.40;99.90
25154;DHT22;47555;51.038;6.280;2022-11-15T00:31:51;9.40;99.90
25154;DHT22;47555;51.038;6.280;2022-11-15T00:34:17;9.40;99.90
25154;DHT22;47555;51.038;6.280;2022-11-15T00:36:42;9.50;99.90
25154;DHT22;47555;51.038;6.280;2022-11-15T00:39:08;9.50;99.90
25154;DHT22;47555;51.038;6.280;2022-11-15T00:41:34;9.50;99.90
25154;DHT22;47555;51.038;6.280;2022-11-15T00:43:59;9.50;99.90
25154;DHT22;47555;51.038;6.280;2022-11-15T00:46:25;9.50;99.90
25154;DHT22;47555;51.038;6.280;2022-11-15T00:48:50;9.50;99.90
25154;DHT22;47555;51.038;6.280;2022-11-15T00:51:16;9.50;99.90
25154;DHT22;47555;51.038;6.280;2022-11-15T00:53:41;9.50;99.90
25154;DHT22;47555;51.038;6.280;2022-11-15T00:56:07;9.50;99.90
25154;DHT22;47555;51.038;6.280;2022-11-15T00:58:32;9.60;99.90
25154;DHT22;47555;51.038;6.280;2022-11-15T01:01:10;9.60;99.90
25154;DHT22;47555;51.038;6.280;2022-11-15T01:03:37;9.60;99.90
25154;DHT22;47555;51.038;6.280;2022-11-15T01:06:02;9.60;99.90
25154;DHT22;47555;51.038;6.280;2022-11-15T01:08:28;9.70;99.90
25154;DHT22;47555;51.038;6.280;2022-11-15T01:10:54;9.70;99.90
25154;DHT22;47555;51.038;6.280;2022-11-15T01:13:19;9.70;99.90
25154;DHT22;47555;51.038;6.280;2022-11-15T01:15:45;9.70;99.90
25154;DHT22;47555;51.038;6.280;2022-11-15T01:18:10;9.80;99.90
25154;DHT22;47555;51.038;6.280;2022-11-15T01:20:42;9.80;99.90
25154;DHT22;47555;51.038;6.280;2022-11-15T01:23:08;9.80;99.90
25154;DHT22;47555;51.038;6.280;2022-11-15T01:25:33;9.80;99.90
25154;DHT22;47555;51.038;6.280;2022-11-15T01:27:59;9.80;99.90
25154;DHT22;47555;51.038;6.280;2022-11-15T01:30:24;9.80;99.90
25154;DHT22;47555;51.038;6.280;2022-11-15T01:32:50;9.80;99.90
25154;DHT22;47555;51.038;6.280;2022-11-15T01:35:15;9.80;99.90
25154;DHT22;47555;51.038;6.280;2022-11-15T01:37:42;9.80;99.90
25154;DHT22;47555;51.038;6.280;2022-11-15T01:40:07;9.80;99.90
25154;DHT22;47555;51.038;6.280;2022-11-15T01:42:33;9.90;99.90
25154;DHT22;47555;51.038;6.280;2022-11-15T01:44:59;9.90;99.90
25154;DHT22;47555;51.038;6.280;2022-11-15T01:47:28;9.90;99.90
25154;DHT22;47555;51.038;6.280;2022-11-15T01:50:00;10.00;99.90
25154;DHT22;47555;51.038;6.280;2022-11-15T01:52:29;10.00;99.90
25154;DHT22;47555;51.038;6.280;2022-11-15T01:55:14;10.00;99.90
25154;DHT22;47555;51.038;6.280;2022-11-15T01:57:42;10.00;99.90
25154;DHT22;47555;51.038;6.280;2022-11-15T02:00:10;10.00;99.90
25154;DHT22;47555;51.038;6.280;2022-11-15T02:02:37;10.00;99.90
25154;DHT22;47555;51.038;6.280;2022-11-15T02:05:03;10.00;99.90
25154;DHT22;47555;51.038;6.280;2022-11-15T02:07:29;10.00;99.90
25154;DHT22;47555;51.038;6.280;2022-11-15T02:09:58;10.00;99.90
25154;DHT22;47555;51.038;6.280;2022-11-15T02:12:25;10.10;99.90
25154;DHT22;47555;51.038;6.280;2022-11-15T02:14:53;10.10;99.90
25154;DHT22;47555;51.038;6.280;2022-11-15T02:17:56;10.10;99.90
25154;DHT22;47555;51.038;6.280;2022-11-15T02:20:34;10.10;99.90
25154;DHT22;47555;51.038;6.280;2022-11-15T02:23:31;10.20;99.90
25154;DHT22;47555;51.038;6.280;2022-11-15T02:29:07;10.20;99.90
25154;DHT22;47555;51.038;6.280;2022-11-15T02:31:46;10.30;99.90
25154;DHT22;47555;51.038;6.280;2022-11-15T02:34:32;10.30;99.90
25154;DHT22;47555;51.038;6.280;2022-11-15T02:40:29;10.40;99.90
25154;DHT22;47555;51.038;6.280;2022-11-15T02:43:10;10.40;99.90
25154;DHT22;47555;51.038;6.280;2022-11-15T02:48:48;10.40;99.90
25154;DHT22;47555;51.038;6.280;2022-11-15T02:51:14;10.40;99.90
25154;DHT22;47555;51.038;6.280;2022-11-15T02:53:40;10.40;99.90
25154;DHT22;47555;51.038;6.280;2022-11-15T02:56:08;10.40;99.90
25154;DHT22;47555;51.038;6.280;2022-11-15T03:05:09;10.50;99.90
25154;DHT22;47555;51.038;6.280;2022-11-15T03:07:52;10.50;99.90
25154;DHT22;47555;51.038;6.280;2022-11-15T03:10:47;10.50;99.90
25154;DHT22;47555;51.038;6.280;2022-11-15T03:13:23;10.60;99.90
25154;DHT22;47555;51.038;6.280;2022-11-15T03:15:57;10.70;99.90
25154;DHT22;47555;51.038;6.280;2022-11-15T03:18:32;10.70;99.90
25154;DHT22;47555;51.038;6.280;2022-11-15T03:21:00;10.80;99.90
25154;DHT22;47555;51.038;6.280;2022-11-15T03:23:26;10.90;99.90
25154;DHT22;47555;51.038;6.280;2022-11-15T03:25:54;11.10;99.90
25154;DHT22;47555;51.038;6.280;2022-11-15T03:29:11;11.20;99.90
25154;DHT22;47555;51.038;6.280;2022-11-15T03:31:18;11.30;99.90
25154;DHT22;47555;51.038;6.280;2022-11-15T03:34:05;11.40;99.90
25154;DHT22;47555;51.038;6.280;2022-11-15T03:36:33;11.50;99.90
25154;DHT22;47555;51.038;6.280;2022-11-15T03:39:04;11.60;99.90
25154;DHT22;47555;51.038;6.280;2022-11-15T03:41:44;11.60;99.90
25154;DHT22;47555;51.038;6.280;2022-11-15T03:44:20;11.60;99.90
25154;DHT22;47555;51.038;6.280;2022-11-15T03:49:22;11.70;99.90
25154;DHT22;47555;51.038;6.280;2022-11-15T03:51:50;11.80;99.90
25154;DHT22;47555;51.038;6.280;2022-11-15T03:54:15;11.80;99.90
25154;DHT22;47555;51.038;6.280;2022-11-15T03:56:41;11.80;99.90
25154;DHT22;47555;51.038;6.280;2022-11-15T03:59:06;11.80;99.90
25154;DHT22;47555;51.038;6.280;2022-11-15T04:01:32;11.90;99.90
25154;DHT22;47555;51.038;6.280;2022-11-15T04:03:57;11.90;99.90
25154;DHT22;47555;51.038;6.280;2022-11-15T04:06:23;11.90;99.90
25154;DHT22;47555;51.038;6.280;2022-11-15T04:08:48;11.90;99.90
25154;DHT22;47555;51.038;6.280;2022-11-15T04:11:14;11.90;99.90
25154;DHT22;47555;51.038;6.280;2022-11-15T04:13:39;11.90;99.90
25154;DHT22;47555;51.038;6.280;2022-11-15T04:16:05;11.90;99.90
25154;DHT22;47555;51.038;6.280;2022-11-15T04:18:30;11.90;99.90
25154;DHT22;47555;51.038;6.280;2022-11-15T04:20:56;11.80;99.90
25154;DHT22;47555;51.038;6.280;2022-11-15T04:23:40;11.80;99.90
25154;DHT22;47555;51.038;6.280;2022-11-15T04:26:24;11.80;99.90
25154;DHT22;47555;51.038;6.280;2022-11-15T04:28:49;11.80;99.90
25154;DHT22;47555;51.038;6.280;2022-11-15T04:31:33;11.80;99.90
25154;DHT22;47555;51.038;6.280;2022-11-15T04:34:00;11.80;99.90
25154;DHT22;47555;51.038;6.280;2022-11-15T04:36:26;11.80;99.90
25154;DHT22;47555;51.038;6.280;2022-11-15T04:39:10;11.80;99.90
25154;DHT22;47555;51.038;6.280;2022-11-15T04:41:36;11.80;99.90
25154;DHT22;47555;51.038;6.280;2022-11-15T04:44:01;11.80;99.90
25154;DHT22;47555;51.038;6.280;2022-11-15T04:46:27;11.80;99.90
25154;DHT22;47555;51.038;6.280;2022-11-15T04:48:53;11.70;99.90
25154;DHT22;47555;51.038;6.280;2022-11-15T04:51:19;11.70;99.90
25154;DHT22;47555;51.038;6.280;2022-11-15T04:53:45;11.70;99.90
25154;DHT22;47555;51.038;6.280;2022-11-15T04:56:11;11.60;99.90
25154;DHT22;47555;51.038;6.280;2022-11-15T04:58:37;11.60;99.90
25154;DHT22;47555;51.038;6.280;2022-11-15T05:01:13;11.50;99.90
25154;DHT22;47555;51.038;6.280;2022-11-15T05:03:40;11.50;99.90
25154;DHT22;47555;51.038;6.280;2022-11-15T05:06:24;11.50;99.90
25154;DHT22;47555;51.038;6.280;2022-11-15T05:08:50;11.40;99.90
25154;DHT22;47555;51.038;6.280;2022-11-15T05:11:15;11.40;99.90
25154;DHT22;47555;51.038;6.280;2022-11-15T05:13:41;11.40;99.90
25154;DHT22;47555;51.038;6.280;2022-11-15T05:16:06;11.40;99.90
25154;DHT22;47555;51.038;6.280;2022-11-15T05:18:32;11.40;99.90
25154;DHT22;47555;51.038;6.280;2022-11-15T05:21:06;11.40;99.90
25154;DHT22;47555;51.038;6.280;2022-11-15T05:23:32;11.30;99.90
25154;DHT22;47555;51.038;6.280;2022-11-15T05:26:02;11.40;99.90
25154;DHT22;47555;51.038;6.280;2022-11-15T05:28:28;11.40;99.90
25154;DHT22;47555;51.038;6.280;2022-11-15T05:31:13;11.50;99.90
25154;DHT22;47555;51.038;6.280;2022-11-15T05:33:40;11.50;99.90
25154;DHT22;47555;51.038;6.280;2022-11-15T05:36:27;11.60;99.90
25154;DHT22;47555;51.038;6.280;2022-11-15T05:38:54;11.70;99.90
25154;DHT22;47555;51.038;6.280;2022-11-15T05:41:25;11.70;99.90
25154;DHT22;47555;51.038;6.280;2022-11-15T05:43:52;11.70;99.90
25154;DHT22;47555;51.038;6.280;2022-11-15T05:46:18;11.70;99.90
25154;DHT22;47555;51.038;6.280;2022-11-15T05:48:46;11.70;99.90
25154;DHT22;47555;51.038;6.280;2022-11-15T05:51:13;11.70;99.90
25154;DHT22;47555;51.038;6.280;2022-11-15T05:53:40;11.70;99.90
25154;DHT22;47555;51.038;6.280;2022-11-15T05:56:05;11.70;99.90
25154;DHT22;47555;51.038;6.280;2022-11-15T05:58:32;11.70;99.90
25154;DHT22;47555;51.038;6.280;2022-11-15T06:00:59;11.80;99.90
25154;DHT22;47555;51.038;6.280;2022-11-15T06:03:25;11.80;99.90
25154;DHT22;47555;51.038;6.280;2022-11-15T06:05:50;11.80;99.90
25154;DHT22;47555;51.038;6.280;2022-11-15T06:08:16;11.90;99.90
25154;DHT22;47555;51.038;6.280;2022-11-15T06:10:41;11.90;99.90
25154;DHT22;47555;51.038;6.280;2022-11-15T06:13:07;11.90;99.90
25154;DHT22;47555;51.038;6.280;2022-11-15T06:15:33;11.90;99.90
25154;DHT22;47555;51.038;6.280;2022-11-15T06:18:01;12.00;99.90
25154;DHT22;47555;51.038;6.280;2022-11-15T06:20:28;12.00;99.90
25154;DHT22;47555;51.038;6.280;2022-11-15T06:22:58;12.00;99.90
25154;DHT22;47555;51.038;6.280;2022-11-15T06:25:24;12.10;99.90
25154;DHT22;47555;51.038;6.280;2022-11-15T06:27:55;12.00;99.90
25154;DHT22;47555;51.038;6.280;2022-11-15T06:30:22;12.00;99.90
25154;DHT22;47555;51.038;6.280;2022-11-15T06:32:47;12.10;99.90
25154;DHT22;47555;51.038;6.280;2022-11-15T06:35:13;12.10;99.90
25154;DHT22;47555;51.038;6.280;2022-11-15T06:37:40;12.10;99.90
25154;DHT22;47555;51.038;6.280;2022-11-15T06:40:07;12.10;99.90
25154;DHT22;47555;51.038;6.280;2022-11-15T06:42:33;12.10;99.90
25154;DHT22;47555;51.038;6.280;2022-11-15T06:44:58;12.10;99.90
25154;DHT22;47555;51.038;6.280;2022-11-15T06:47:24;12.00;99.90
25154;DHT22;47555;51.038;6.280;2022-11-15T06:49:49;12.00;99.90
25154;DHT22;47555;51.038;6.280;2022-11-15T06:52:15;12.00;99.90
25154;DHT22;47555;51.038;6.280;2022-11-15T06:54:43;11.90;99.90
25154;DHT22;47555;51.038;6.280;2022-11-15T06:57:09;11.90;99.90
25154;DHT22;47555;51.038;6.280;2022-11-15T06:59:36;11.80;99.90
25154;DHT22;47555;51.038;6.280;2022-11-15T07:02:01;11.70;99.90
25154;DHT22;47555;51.038;6.280;2022-11-15T07:04:27;11.70;99.90
25154;DHT22;47555;51.038;6.280;2022-11-15T07:07:18;11.70;99.90
25154;DHT22;47555;51.038;6.280;2022-11-15T07:09:43;11.60;99.90
25154;DHT22;47555;51.038;6.280;2022-11-15T07:12:09;11.60;99.90
25154;DHT22;47555;51.038;6.280;2022-11-15T07:14:34;11.60;99.90
25154;DHT22;47555;51.038;6.280;2022-11-15T07:17:03;11.60;99.90
25154;DHT22;47555;51.038;6.280;2022-11-15T07:19:29;11.50;99.90
25154;DHT22;47555;51.038;6.280;2022-11-15T07:21:54;11.50;99.90
25154;DHT22;47555;51.038;6.280;2022-11-15T07:24:20;11.50;99.90
25154;DHT22;47555;51.038;6.280;2022-11-15T07:26:45;11.50;99.90
25154;DHT22;47555;51.038;6.280;2022-11-15T07:29:11;11.50;99.90
25154;DHT22;47555;51.038;6.280;2022-11-15T07:31:36;11.50;99.90
25154;DHT22;47555;51.038;6.280;2022-11-15T07:34:02;11.50;99.90
25154;DHT22;47555;51.038;6.280;2022-11-15T07:36:27;11.50;99.90
25154;DHT22;47555;51.038;6.280;2022-11-15T07:38:53;11.40;99.90
25154;DHT22;47555;51.038;6.280;2022-11-15T07:41:18;11.50;99.90
25154;DHT22;47555;51.038;6.280;2022-11-15T07:43:44;11.40;99.90
25154;DHT22;47555;51.038;6.280;2022-11-15T07:46:09;11.40;99.90
25154;DHT22;47555;51.038;6.280;2022-11-15T07:48:36;11.40;99.90
25154;DHT22;47555;51.038;6.280;2022-11-15T07:51:02;11.50;99.90
25154;DHT22;47555;51.038;6.280;2022-11-15T07:53:28;11.50;99.90
25154;DHT22;47555;51.038;6.280;2022-11-15T07:55:53;11.50;99.90
25154;DHT22;47555;51.038;6.280;2022-11-15T07:58:22;11.50;99.90
25154;DHT22;47555;51.038;6.280;2022-11-15T08:00:47;11.50;99.90
25154;DHT22;47555;51.038;6.280;2022-11-15T08:03:14;11.50;99.90
25154;DHT22;47555;51.038;6.280;2022-11-15T08:05:41;11.60;99.90
25154;DHT22;47555;51.038;6.280;2022-11-15T08:08:09;11.50;99.90
25154;DHT22;47555;51.038;6.280;2022-11-15T08:10:35;11.60;99.90
25154;DHT22;47555;51.038;6.280;2022-11-15T08:13:05;11.60;99.90
25154;DHT22;47555;51.038;6.280;2022-11-15T08:15:32;11.60;99.90
25154;DHT22;47555;51.038;6.280;2022-11-15T08:17:59;11.70;99.90
25154;DHT22;47555;51.038;6.280;2022-11-15T08:20:26;11.70;99.90
25154;DHT22;47555;51.038;6.280;2022-11-15T08:22:55;11.70;99.90
25154;DHT22;47555;51.038;6.280;2022-11-15T08:25:21;11.80;99.90
25154;DHT22;47555;51.038;6.280;2022-11-15T08:27:46;11.90;99.90
25154;DHT22;47555;51.038;6.280;2022-11-15T08:30:12;12.00;99.90
25154;DHT22;47555;51.038;6.280;2022-11-15T08:32:39;12.10;99.90
25154;DHT22;47555;51.038;6.280;2022-11-15T08:35:05;12.20;99.90
25154;DHT22;47555;51.038;6.280;2022-11-15T08:37:31;12.30;99.90
25154;DHT22;47555;51.038;6.280;2022-11-15T08:39:56;12.30;99.90
25154;DHT22;47555;51.038;6.280;2022-11-15T08:42:22;12.40;99.90
25154;DHT22;47555;51.038;6.280;2022-11-15T08:44:47;12.50;99.90
25154;DHT22;47555;51.038;6.280;2022-11-15T08:47:13;12.60;99.90
25154;DHT22;47555;51.038;6.280;2022-11-15T08:49:39;12.70;99.90
25154;DHT22;47555;51.038;6.280;2022-11-15T08:52:04;12.90;99.90
25154;DHT22;47555;51.038;6.280;2022-11-15T08:54:30;13.00;99.90
25154;DHT22;47555;51.038;6.280;2022-11-15T08:56:55;13.10;99.90
25154;DHT22;47555;51.038;6.280;2022-11-15T08:59:21;13.10;97.50
25154;DHT22;47555;51.038;6.280;2022-11-15T09:01:47;13.10;97.30
25154;DHT22;47555;51.038;6.280;2022-11-15T09:04:13;13.20;97.10
25154;DHT22;47555;51.038;6.280;2022-11-15T09:06:38;13.20;96.30
25154;DHT22;47555;51.038;6.280;2022-11-15T09:09:04;13.30;94.20
25154;DHT22;47555;51.038;6.280;2022-11-15T09:11:29;13.30;94.10
25154;DHT22;47555;51.038;6.280;2022-11-15T09:13:55;13.30;93.80
25154;DHT22;47555;51.038;6.280;2022-11-15T09:16:20;13.40;93.70
25154;DHT22;47555;51.038;6.280;2022-11-15T09:18:46;13.40;94.30
25154;DHT22;47555;51.038;6.280;2022-11-15T09:21:11;13.40;94.70
25154;DHT22;47555;51.038;6.280;2022-11-15T09:23:37;13.40;93.70
25154;DHT22;47555;51.038;6.280;2022-11-15T09:26:04;13.40;93.80
25154;DHT22;47555;51.038;6.280;2022-11-15T09:28:30;13.40;92.00
25154;DHT22;47555;51.038;6.280;2022-11-15T09:30:58;13.40;91.10
25154;DHT22;47555;51.038;6.280;2022-11-15T09:33:24;13.50;92.20
25154;DHT22;47555;51.038;6.280;2022-11-15T09:35:50;13.60;88.70
25154;DHT22;47555;51.038;6.280;2022-11-15T09:38:15;13.80;89.70
25154;DHT22;47555;51.038;6.280;2022-11-15T09:40:41;14.00;89.50
25154;DHT22;47555;51.038;6.280;2022-11-15T09:48:49;14.30;87.60
25154;DHT22;47555;51.038;6.280;2022-11-15T09:51:30;14.40;82.80
25154;DHT22;47555;51.038;6.280;2022-11-15T09:54:15;14.50;85.10
25154;DHT22;47555;51.038;6.280;2022-11-15T09:56:44;14.50;83.40
25154;DHT22;47555;51.038;6.280;2022-11-15T10:02:38;14.40;77.70
25154;DHT22;47555;51.038;6.280;2022-11-15T10:05:11;14.20;78.60
25154;DHT22;47555;51.038;6.280;2022-11-15T10:08:05;14.20;78.80
25154;DHT22;47555;51.038;6.280;2022-11-15T10:10:47;14.30;76.00
25154;DHT22;47555;51.038;6.280;2022-11-15T10:13:25;14.40;71.20
25154;DHT22;47555;51.038;6.280;2022-11-15T10:15:53;14.50;69.10
25154;DHT22;47555;51.038;6.280;2022-11-15T10:18:42;14.60;67.40
25154;DHT22;47555;51.038;6.280;2022-11-15T10:21:17;14.60;63.50
25154;DHT22;47555;51.038;6.280;2022-11-15T10:23:44;14.70;65.60
25154;DHT22;47555;51.038;6.280;2022-11-15T10:26:16;14.80;63.80
25154;DHT22;47555;51.038;6.280;2022-11-15T10:28:41;14.80;61.80
25154;DHT22;47555;51.038;6.280;2022-11-15T10:31:22;14.80;54.80
25154;DHT22;47555;51.038;6.280;2022-11-15T10:33:49;14.90;52.70
25154;DHT22;47555;51.038;6.280;2022-11-15T10:36:18;15.00;51.30
25154;DHT22;47555;51.038;6.280;2022-11-15T10:46:33;15.00;42.00
25154;DHT22;47555;51.038;6.280;2022-11-15T10:49:14;15.00;42.70
25154;DHT22;47555;51.038;6.280;2022-11-15T10:51:53;15.10;42.80
25154;DHT22;47555;51.038;6.280;2022-11-15T10:54:39;15.10;39.20
25154;DHT22;47555;51.038;6.280;2022-11-15T10:57:16;14.90;39.00
25154;DHT22;47555;51.038;6.280;2022-11-15T10:59:46;14.90;39.90
25154;DHT22;47555;51.038;6.280;2022-11-15T11:02:57;15.00;39.00
25154;DHT22;47555;51.038;6.280;2022-11-15T11:05:31;15.00;36.10
25154;DHT22;47555;51.038;6.280;2022-11-15T11:10:29;15.10;33.40
25154;DHT22;47555;51.038;6.280;2022-11-15T11:12:54;15.20;33.70
25154;DHT22;47555;51.038;6.280;2022-11-15T11:15:23;15.20;33.30
25154;DHT22;47555;51.038;6.280;2022-11-15T11:18:05;15.10;33.30
25154;DHT22;47555;51.038;6.280;2022-11-15T11:20:41;15.00;34.10
25154;DHT22;47555;51.038;6.280;2022-11-15T11:25:50;15.20;33.90
25154;DHT22;47555;51.038;6.280;2022-11-15T11:28:38;15.20;34.80
25154;DHT22;47555;51.038;6.280;2022-11-15T11:31:10;15.30;34.70
25154;DHT22;47555;51.038;6.280;2022-11-15T11:36:25;15.20;32.90
25154;DHT22;47555;51.038;6.280;2022-11-15T11:46:46;14.80;34.80
25154;DHT22;47555;51.038;6.280;2022-11-15T11:49:20;14.80;34.70
25154;DHT22;47555;51.038;6.280;2022-11-15T11:51:56;14.80;34.80
25154;DHT22;47555;51.038;6.280;2022-11-15T11:54:36;14.80;34.50
25154;DHT22;47555;51.038;6.280;2022-11-15T11:57:05;14.80;34.50
25154;DHT22;47555;51.038;6.280;2022-11-15T11:59:49;14.80;34.70
25154;DHT22;47555;51.038;6.280;2022-11-15T12:02:28;14.70;35.70
25154;DHT22;47555;51.038;6.280;2022-11-15T12:05:04;14.60;35.20
25154;DHT22;47555;51.038;6.280;2022-11-15T12:07:34;14.50;35.60
25154;DHT22;47555;51.038;6.280;2022-11-15T12:10:23;14.40;36.70
25154;DHT22;47555;51.038;6.280;2022-11-15T12:13:09;14.40;37.00
25154;DHT22;47555;51.038;6.280;2022-11-15T12:18:24;14.20;37.00
25154;DHT22;47555;51.038;6.280;2022-11-15T12:20:58;14.20;37.60
25154;DHT22;47555;51.038;6.280;2022-11-15T12:23:28;14.20;37.50
25154;DHT22;47555;51.038;6.280;2022-11-15T12:26:02;14.10;37.70
25154;DHT22;47555;51.038;6.280;2022-11-15T12:28:45;14.10;38.40
25154;DHT22;47555;51.038;6.280;2022-11-15T12:31:26;14.00;39.10
25154;DHT22;47555;51.038;6.280;2022-11-15T12:33:56;14.00;39.10
25154;DHT22;47555;51.038;6.280;2022-11-15T12:38:59;14.00;41.50
25154;DHT22;47555;51.038;6.280;2022-11-15T12:41:27;14.10;42.30
25154;DHT22;47555;51.038;6.280;2022-11-15T12:43:53;14.10;43.00
25154;DHT22;47555;51.038;6.280;2022-11-15T12:48:53;14.10;44.10
25154;DHT22;47555;51.038;6.280;2022-11-15T12:51:20;14.20;44.40
25154;DHT22;47555;51.038;6.280;2022-11-15T12:53:46;14.20;46.00
25154;DHT22;47555;51.038;6.280;2022-11-15T13:06:50;14.10;48.60
25154;DHT22;47555;51.038;6.280;2022-11-15T13:14:39;14.00;49.10
25154;DHT22;47555;51.038;6.280;2022-11-15T13:17:25;14.00;49.30
25154;DHT22;47555;51.038;6.280;2022-11-15T13:30:53;14.00;53.50
25154;DHT22;47555;51.038;6.280;2022-11-15T13:33:34;13.90;53.50
25154;DHT22;47555;51.038;6.280;2022-11-15T13:36:03;13.90;54.00
25154;DHT22;47555;51.038;6.280;2022-11-15T13:38:33;14.00;54.40
25154;DHT22;47555;51.038;6.280;2022-11-15T13:41:00;14.00;55.50
25154;DHT22;47555;51.038;6.280;2022-11-15T13:43:35;14.00;57.10
25154;DHT22;47555;51.038;6.280;2022-11-15T13:46:12;14.10;56.40
25154;DHT22;47555;51.038;6.280;2022-11-15T13:48:42;14.10;56.40
25154;DHT22;47555;51.038;6.280;2022-11-15T13:51:15;14.10;56.00
25154;DHT22;47555;51.038;6.280;2022-11-15T13:53:46;14.10;56.60
25154;DHT22;47555;51.038;6.280;2022-11-15T13:56:15;14.10;58.20
25154;DHT22;47555;51.038;6.280;2022-11-15T13:58:41;14.10;58.60
25154;DHT22;47555;51.038;6.280;2022-11-15T14:01:15;14.10;57.60
25154;DHT22;47555;51.038;6.280;2022-11-15T14:03:49;14.10;58.60
25154;DHT22;47555;51.038;6.280;2022-11-15T14:06:18;14.10;59.80
25154;DHT22;47555;51.038;6.280;2022-11-15T14:11:35;14.10;63.00
25154;DHT22;47555;51.038;6.280;2022-11-15T14:16:45;14.10;63.70
25154;DHT22;47555;51.038;6.280;2022-11-15T14:22:22;14.10;64.60
25154;DHT22;47555;51.038;6.280;2022-11-15T14:25:21;14.10;64.00
25154;DHT22;47555;51.038;6.280;2022-11-15T14:28:14;14.10;65.70
25154;DHT22;47555;51.038;6.280;2022-11-15T14:30:41;14.10;68.10
25154;DHT22;47555;51.038;6.280;2022-11-15T14:33:22;14.10;67.60
25154;DHT22;47555;51.038;6.280;2022-11-15T14:35:48;14.10;67.80
25154;DHT22;47555;51.038;6.280;2022-11-15T14:38:14;14.10;68.50
25154;DHT22;47555;51.038;6.280;2022-11-15T14:40:42;14.10;68.80
25154;DHT22;47555;51.038;6.280;2022-11-15T14:43:09;14.10;67.90
25154;DHT22;47555;51.038;6.280;2022-11-15T14:45:35;14.00;68.60
25154;DHT22;47555;51.038;6.280;2022-11-15T14:48:01;14.00;68.60
25154;DHT22;47555;51.038;6.280;2022-11-15T14:50:26;14.00;68.20
25154;DHT22;47555;51.038;6.280;2022-11-15T14:52:53;14.00;68.20
25154;DHT22;47555;51.038;6.280;2022-11-15T14:55:25;14.00;68.40
25154;DHT22;47555;51.038;6.280;2022-11-15T14:57:51;14.00;68.80
25154;DHT22;47555;51.038;6.280;2022-11-15T15:00:18;14.00;69.10
25154;DHT22;47555;51.038;6.280;2022-11-15T15:02:45;13.90;70.10
25154;DHT22;47555;51.038;6.280;2022-11-15T15:05:20;13.90;70.70
25154;DHT22;47555;51.038;6.280;2022-11-15T15:07:47;13.90;72.60
25154;DHT22;47555;51.038;6.280;2022-11-15T15:10:13;13.90;74.10
25154;DHT22;47555;51.038;6.280;2022-11-15T15:12:39;13.80;75.00
25154;DHT22;47555;51.038;6.280;2022-11-15T15:15:05;13.80;76.80
25154;DHT22;47555;51.038;6.280;2022-11-15T15:17:31;13.70;79.80
25154;DHT22;47555;51.038;6.280;2022-11-15T15:19:57;13.70;81.90
25154;DHT22;47555;51.038;6.280;2022-11-15T15:22:22;13.70;84.20
25154;DHT22;47555;51.038;6.280;2022-11-15T15:24:51;13.60;85.20
25154;DHT22;47555;51.038;6.280;2022-11-15T15:27:16;13.60;87.20
25154;DHT22;47555;51.038;6.280;2022-11-15T15:29:42;13.60;87.70
25154;DHT22;47555;51.038;6.280;2022-11-15T15:32:08;13.60;88.70
25154;DHT22;47555;51.038;6.280;2022-11-15T15:34:34;13.50;90.10
25154;DHT22;47555;51.038;6.280;2022-11-15T15:37:26;13.50;91.30
25154;DHT22;47555;51.038;6.280;2022-11-15T15:39:55;13.50;92.00
25154;DHT22;47555;51.038;6.280;2022-11-15T15:42:22;13.50;92.90
25154;DHT22;47555;51.038;6.280;2022-11-15T15:44:48;13.50;94.10
25154;DHT22;47555;51.038;6.280;2022-11-15T15:47:21;13.40;95.20
25154;DHT22;47555;51.038;6.280;2022-11-15T15:49:47;13.40;96.00
25154;DHT22;47555;51.038;6.280;2022-11-15T15:52:13;13.40;96.50
25154;DHT22;47555;51.038;6.280;2022-11-15T15:54:39;13.40;96.70
25154;DHT22;47555;51.038;6.280;2022-11-15T15:57:07;13.40;96.90
25154;DHT22;47555;51.038;6.280;2022-11-15T15:59:32;13.40;96.90
25154;DHT22;47555;51.038;6.280;2022-11-15T16:01:58;13.40;97.20
25154;DHT22;47555;51.038;6.280;2022-11-15T16:04:24;13.40;97.50
25154;DHT22;47555;51.038;6.280;2022-11-15T16:06:50;13.40;97.60
25154;DHT22;47555;51.038;6.280;2022-11-15T16:09:18;13.40;98.00
25154;DHT22;47555;51.038;6.280;2022-11-15T16:12:04;13.40;97.60
25154;DHT22;47555;51.038;6.280;2022-11-15T16:14:31;13.40;97.70
25154;DHT22;47555;51.038;6.280;2022-11-15T16:16:56;13.40;97.00
25154;DHT22;47555;51.038;6.280;2022-11-15T16:19:22;13.40;97.10
25154;DHT22;47555;51.038;6.280;2022-11-15T16:21:47;13.50;97.00
25154;DHT22;47555;51.038;6.280;2022-11-15T16:24:13;13.40;97.00
25154;DHT22;47555;51.038;6.280;2022-11-15T16:26:39;13.50;96.80
25154;DHT22;47555;51.038;6.280;2022-11-15T16:29:04;13.50;96.50
25154;DHT22;47555;51.038;6.280;2022-11-15T16:31:32;13.50;96.90
25154;DHT22;47555;51.038;6.280;2022-11-15T16:33:57;13.50;96.60
25154;DHT22;47555;51.038;6.280;2022-11-15T16:36:24;13.50;96.80
25154;DHT22;47555;51.038;6.280;2022-11-15T16:38:50;13.50;97.10
25154;DHT22;47555;51.038;6.280;2022-11-15T16:41:16;13.50;98.10
25154;DHT22;47555;51.038;6.280;2022-11-15T16:43:49;13.50;99.00
25154;DHT22;47555;51.038;6.280;2022-11-15T16:48:40;13.40;99.90
25154;DHT22;47555;51.038;6.280;2022-11-15T16:51:05;13.30;99.90
25154;DHT22;47555;51.038;6.280;2022-11-15T16:53:31;13.20;99.90
25154;DHT22;47555;51.038;6.280;2022-11-15T16:55:57;13.20;99.90
25154;DHT22;47555;51.038;6.280;2022-11-15T16:58:23;13.00;99.90
25154;DHT22;47555;51.038;6.280;2022-11-15T17:00:53;13.00;99.90
25154;DHT22;47555;51.038;6.280;2022-11-15T17:03:20;12.90;99.90
25154;DHT22;47555;51.038;6.280;2022-11-15T17:05:46;12.80;99.90
25154;DHT22;47555;51.038;6.280;2022-11-15T17:08:11;12.70;99.90
25154;DHT22;47555;51.038;6.280;2022-11-15T17:10:40;12.70;99.90
25154;DHT22;47555;51.038;6.280;2022-11-15T17:13:09;12.60;99.90
25154;DHT22;47555;51.038;6.280;2022-11-15T17:15:36;12.50;99.90
25154;DHT22;47555;51.038;6.280;2022-11-15T17:18:02;12.50;99.90
25154;DHT22;47555;51.038;6.280;2022-11-15T17:20:27;12.40;99.90
25154;DHT22;47555;51.038;6.280;2022-11-15T17:22:53;12.40;99.90